createdAt,value
2018-07-19T00:00:23.280Z,7.80
2018-07-19T00:02:54.003Z,7.47
2018-07-19T00:05:24.738Z,7.60
2018-07-19T00:07:55.489Z,7.57
2018-07-19T00:10:26.161Z,7.83
2018-07-19T00:12:56.839Z,7.43
2018-07-19T00:15:26.942Z,7.63
2018-07-19T00:17:57.757Z,8.20
2018-07-19T00:20:28.807Z,7.40
2018-07-19T00:22:59.472Z,7.20
2018-07-19T00:25:30.244Z,7.60
2018-07-19T00:28:00.908Z,7.30
2018-07-19T00:30:31.584Z,8.10
2018-07-19T00:33:02.275Z,7.97
2018-07-19T00:35:33.007Z,7.70
2018-07-19T00:38:03.723Z,7.70
2018-07-19T00:40:34.415Z,7.77
2018-07-19T00:43:05.336Z,8.07
2018-07-19T00:45:36.263Z,8.33
2018-07-19T00:48:07.047Z,8.30
2018-07-19T00:50:37.768Z,8.60
2018-07-19T00:53:08.447Z,7.87
2018-07-19T00:55:38.576Z,8.00
2018-07-19T00:58:09.724Z,8.40
2018-07-19T01:00:40.406Z,8.57
2018-07-19T01:03:11.080Z,8.10
2018-07-19T01:05:41.799Z,8.30
2018-07-19T01:08:12.504Z,8.60
2018-07-19T01:10:43.230Z,8.10
2018-07-19T01:13:13.903Z,8.10
2018-07-19T01:15:44.717Z,8.60
2018-07-19T01:18:15.478Z,8.63
2018-07-19T01:20:46.222Z,8.57
2018-07-19T01:23:16.934Z,9.13
2018-07-19T01:25:47.696Z,8.60
2018-07-19T01:28:18.425Z,8.50
2018-07-19T01:30:49.192Z,8.40
2018-07-19T01:33:19.896Z,9.37
2018-07-19T01:35:50.624Z,8.70
2018-07-19T01:38:21.299Z,8.60
2018-07-19T01:40:52.009Z,8.70
2018-07-19T01:43:22.170Z,8.50
2018-07-19T01:45:52.988Z,9.10
2018-07-19T01:48:23.735Z,8.20
2018-07-19T01:50:54.425Z,8.43
2018-07-19T01:53:25.126Z,8.47
2018-07-19T01:55:55.803Z,9.00
2018-07-19T01:58:26.583Z,9.30
2018-07-19T02:00:57.346Z,8.43
2018-07-19T02:03:28.395Z,8.53
2018-07-19T02:05:59.090Z,8.70
2018-07-19T02:08:29.778Z,9.53
2018-07-19T02:11:00.521Z,9.60
2018-07-19T02:13:31.236Z,10.07
2018-07-19T02:16:01.370Z,9.53
2018-07-19T02:18:32.060Z,9.20
2018-07-19T02:21:02.784Z,8.83
2018-07-19T02:23:33.561Z,8.87
2018-07-19T02:26:04.258Z,8.97
2018-07-19T02:28:35.132Z,9.33
2018-07-19T02:31:05.829Z,9.50
2018-07-19T02:33:37.211Z,9.27
2018-07-19T02:36:08.017Z,9.33
2018-07-19T02:38:38.680Z,8.70
2018-07-19T02:41:09.900Z,8.63
2018-07-19T02:43:40.635Z,8.50
2018-07-19T02:46:11.395Z,8.23
2018-07-19T02:48:42.051Z,7.90
2018-07-19T02:51:12.689Z,7.90
2018-07-19T02:53:43.398Z,8.30
2018-07-19T02:56:13.532Z,8.10
2018-07-19T02:58:44.316Z,7.63
2018-07-19T03:01:15.007Z,7.50
2018-07-19T03:03:45.689Z,7.73
2018-07-19T03:06:16.371Z,8.00
2018-07-19T03:08:47.093Z,8.50
2018-07-19T03:11:17.798Z,8.07
2018-07-19T03:13:48.608Z,8.37
2018-07-19T03:16:19.632Z,8.30
2018-07-19T03:18:50.342Z,8.50
2018-07-19T03:21:21.032Z,7.90
2018-07-19T03:23:51.136Z,8.70
2018-07-19T03:26:21.829Z,8.73
2018-07-19T03:28:52.526Z,9.50
2018-07-19T03:31:23.208Z,9.20
2018-07-19T03:33:53.947Z,9.43
2018-07-19T03:36:24.661Z,9.50
2018-07-19T03:38:55.355Z,9.80
2018-07-19T03:41:26.160Z,10.30
2018-07-19T03:43:56.952Z,9.93
2018-07-19T03:46:27.604Z,9.20
2018-07-19T03:48:58.344Z,9.53
2018-07-19T03:51:29.115Z,9.77
2018-07-19T03:53:59.844Z,9.63
2018-07-19T03:56:30.509Z,9.20
2018-07-19T03:59:01.263Z,10.17
2018-07-19T04:01:31.988Z,10.50
2018-07-19T04:04:02.674Z,10.13
2018-07-19T04:06:33.393Z,9.20
2018-07-19T04:09:04.257Z,10.07
2018-07-19T04:11:35.080Z,10.17
2018-07-19T04:14:06.436Z,9.47
2018-07-19T04:16:37.124Z,9.47
2018-07-19T04:19:08.001Z,8.90
2018-07-19T04:21:38.736Z,9.10
2018-07-19T04:24:09.480Z,9.20
2018-07-19T04:26:40.163Z,8.97
2018-07-19T04:29:10.843Z,8.90
2018-07-19T04:31:41.578Z,8.70
2018-07-19T04:34:11.699Z,8.73
2018-07-19T04:36:42.370Z,8.93
2018-07-19T04:39:13.020Z,8.80
2018-07-19T04:41:43.735Z,8.87
2018-07-19T04:44:14.504Z,9.13
2018-07-19T04:46:45.214Z,8.97
2018-07-19T04:49:16.267Z,9.37
2018-07-19T04:51:46.968Z,9.10
2018-07-19T04:54:17.639Z,9.27
2018-07-19T04:56:48.372Z,9.23
2018-07-19T04:59:19.148Z,9.63
2018-07-19T05:01:49.899Z,9.20
2018-07-19T05:04:20.704Z,9.90
2018-07-19T05:06:51.411Z,9.27
2018-07-19T05:09:22.127Z,9.97
2018-07-19T05:11:52.883Z,9.83
2018-07-19T05:14:23.632Z,9.40
2018-07-19T05:16:54.363Z,10.33
2018-07-19T05:19:25.084Z,9.73
2018-07-19T05:21:55.784Z,10.40
2018-07-19T05:24:26.491Z,10.27
2018-07-19T05:26:57.181Z,9.97
2018-07-19T05:29:27.915Z,10.13
2018-07-19T05:31:58.608Z,11.20
2018-07-19T05:34:29.992Z,10.57
2018-07-19T05:37:00.986Z,10.97
2018-07-19T05:39:31.795Z,11.30
2018-07-19T05:42:02.636Z,12.07
2018-07-19T05:44:33.351Z,13.70
2018-07-19T05:47:04.130Z,14.13
2018-07-19T05:49:34.809Z,14.40
2018-07-19T05:52:05.658Z,14.10
2018-07-19T05:54:36.354Z,14.47
2018-07-19T05:57:07.230Z,14.33
2018-07-19T05:59:37.925Z,14.30
2018-07-19T06:02:08.670Z,14.80
2018-07-19T06:04:39.338Z,14.93
2018-07-19T06:07:10.083Z,14.10
2018-07-19T06:09:40.842Z,13.70
2018-07-19T06:12:11.597Z,13.73
2018-07-19T06:14:42.571Z,14.10
2018-07-19T06:17:13.938Z,14.33
2018-07-19T06:19:44.620Z,14.13
2018-07-19T06:22:14.695Z,14.03
2018-07-19T06:24:45.428Z,14.67
2018-07-19T06:27:17.092Z,14.53
2018-07-19T06:29:48.540Z,13.23
2018-07-19T06:32:19.316Z,13.53
2018-07-19T06:34:50.465Z,12.43
2018-07-19T06:37:21.821Z,12.43
2018-07-19T06:39:53.268Z,11.53
2018-07-19T06:42:24.864Z,11.20
2018-07-19T06:44:56.039Z,10.43
2018-07-19T06:47:27.199Z,10.07
2018-07-19T06:49:58.608Z,9.90
2018-07-19T06:52:29.330Z,9.97
2018-07-19T06:55:00.094Z,9.13
2018-07-19T06:57:30.820Z,9.57
2018-07-19T07:00:01.508Z,9.90
2018-07-19T07:02:32.327Z,9.00
2018-07-19T07:05:03.106Z,8.97
2018-07-19T07:07:33.796Z,8.97
2018-07-19T07:10:04.597Z,8.50
2018-07-19T07:12:36.028Z,9.17
2018-07-19T07:15:08.709Z,8.57
2018-07-19T07:17:39.351Z,8.00
2018-07-19T07:20:10.081Z,7.80
2018-07-19T07:22:40.787Z,8.30
2018-07-19T07:25:11.494Z,7.00
2018-07-19T07:27:42.229Z,6.30
2018-07-19T07:30:12.986Z,7.37
2018-07-19T07:32:43.748Z,6.77
2018-07-19T07:35:14.475Z,6.50
2018-07-19T07:37:45.130Z,6.40
2018-07-19T07:40:15.860Z,6.10
2018-07-19T07:42:46.135Z,6.50
2018-07-19T07:45:16.862Z,6.53
2018-07-19T07:47:47.553Z,6.60
2018-07-19T07:50:18.235Z,6.70
2018-07-19T07:52:48.322Z,6.30
2018-07-19T07:55:19.083Z,6.53
2018-07-19T07:57:49.885Z,6.47
2018-07-19T08:00:20.626Z,6.07
2018-07-19T08:02:51.469Z,5.77
2018-07-19T08:05:22.474Z,5.93
2018-07-19T08:07:53.229Z,6.17
2018-07-19T08:10:23.294Z,6.07
2018-07-19T08:12:54.146Z,5.90
2018-07-19T08:15:24.936Z,6.20
2018-07-19T08:17:55.635Z,6.23
2018-07-19T08:20:26.371Z,5.90
2018-07-19T08:22:57.183Z,6.20
2018-07-19T08:25:27.944Z,5.67
2018-07-19T08:27:58.625Z,5.50
2018-07-19T08:30:29.328Z,4.87
2018-07-19T08:33:00.023Z,5.50
2018-07-19T08:35:30.693Z,5.40
2018-07-19T08:38:02.413Z,5.73
2018-07-19T08:40:33.562Z,5.80
2018-07-19T08:43:10.726Z,5.50
2018-07-19T08:45:41.524Z,5.83
2018-07-19T08:48:12.202Z,5.00
2018-07-19T08:50:42.887Z,5.60
2018-07-19T08:53:13.606Z,5.33
2018-07-19T08:55:44.244Z,5.00
2018-07-19T08:58:14.940Z,5.50
2018-07-19T09:00:45.627Z,5.23
2018-07-19T09:03:16.400Z,5.10
2018-07-19T09:05:47.588Z,5.10
2018-07-19T09:08:24.637Z,4.63
2018-07-19T09:10:55.270Z,4.58
2018-07-19T09:13:26.539Z,4.80
2018-07-19T09:17:00.036Z,4.30
2018-07-19T09:19:30.902Z,5.33
2018-07-19T09:22:01.062Z,5.35
2018-07-19T09:24:34.742Z,5.80
2018-07-19T09:27:05.674Z,5.53
2018-07-19T09:29:36.371Z,5.10
2018-07-19T09:32:07.131Z,5.05
2018-07-19T09:34:37.808Z,5.50
2018-07-19T09:37:08.505Z,5.35
2018-07-19T09:39:39.189Z,5.83
2018-07-19T09:42:09.951Z,5.30
2018-07-19T09:44:40.662Z,5.25
2018-07-19T09:47:11.484Z,4.92
2018-07-19T09:49:42.143Z,5.33
2018-07-19T09:52:12.851Z,5.50
2018-07-19T09:54:58.476Z,5.17
2018-07-19T09:57:30.313Z,5.40
2018-07-19T10:00:00.996Z,5.10
2018-07-19T10:02:31.662Z,5.92
2018-07-19T10:05:02.379Z,5.70
2018-07-19T10:07:33.053Z,5.42
2018-07-19T10:10:03.872Z,5.55
2018-07-19T10:12:34.472Z,5.47
2018-07-19T10:15:05.789Z,5.60
2018-07-19T10:17:36.498Z,5.75
2018-07-19T10:20:07.377Z,5.30
2018-07-19T10:22:38.272Z,5.33
2018-07-19T10:25:09.272Z,5.37
2018-07-19T10:27:40.096Z,5.22
2018-07-19T10:30:11.029Z,5.40
2018-07-19T10:32:42.304Z,5.25
2018-07-19T10:35:12.923Z,4.70
2018-07-19T10:37:43.038Z,4.65
2018-07-19T10:40:13.726Z,4.67
2018-07-19T10:42:44.457Z,4.22
2018-07-19T10:45:15.159Z,4.20
2018-07-19T10:47:45.848Z,3.92
2018-07-19T10:50:16.547Z,3.58
2018-07-19T10:52:47.180Z,3.70
2018-07-19T10:55:17.886Z,4.05
2018-07-19T10:57:48.763Z,4.08
2018-07-19T11:00:19.690Z,3.90
2018-07-19T11:02:50.364Z,3.90
2018-07-19T11:05:21.074Z,4.20
2018-07-19T11:07:52.423Z,4.65
2018-07-19T11:10:23.164Z,4.12
2018-07-19T11:12:54.309Z,4.42
2018-07-19T11:15:24.976Z,4.75
2018-07-19T11:17:56.782Z,4.65
2018-07-19T11:20:27.994Z,4.65
2018-07-19T11:22:59.229Z,5.17
2018-07-19T11:25:30.371Z,5.12
2018-07-19T11:28:01.620Z,5.30
2018-07-19T11:30:33.015Z,5.33
2018-07-19T11:33:04.389Z,5.72
2018-07-19T11:35:35.765Z,5.45
2018-07-19T11:38:06.986Z,5.75
2018-07-19T11:40:39.356Z,5.70
2018-07-19T11:43:10.536Z,5.42
2018-07-19T11:45:41.927Z,5.40
2018-07-19T11:48:13.299Z,4.42
2018-07-19T11:50:44.953Z,4.58
2018-07-19T11:53:16.084Z,4.60
2018-07-19T11:55:47.450Z,4.00
2018-07-19T11:58:18.676Z,4.25
2018-07-19T12:00:50.186Z,4.40
2018-07-19T12:03:21.623Z,4.30
2018-07-19T12:05:53.159Z,4.47
2018-07-19T12:08:24.394Z,4.05
2018-07-19T12:10:55.779Z,3.77
2018-07-19T12:13:27.311Z,3.80
2018-07-19T12:15:58.589Z,3.50
2018-07-19T12:18:29.731Z,3.60
2018-07-19T12:21:01.127Z,3.10
2018-07-19T12:23:32.607Z,3.17
2018-07-19T12:26:03.267Z,3.25
2018-07-19T12:28:33.895Z,3.40
2018-07-19T12:31:04.590Z,3.33
2018-07-19T12:33:35.908Z,3.27
2018-07-19T12:36:08.459Z,3.22
2018-07-19T12:38:39.942Z,3.20
2018-07-19T12:41:11.511Z,3.33
2018-07-19T12:43:42.913Z,3.20
2018-07-19T12:46:14.209Z,3.22
2018-07-19T12:48:45.263Z,3.35
2018-07-19T12:51:15.934Z,3.60
2018-07-19T12:53:46.723Z,4.17
2018-07-19T12:56:16.838Z,3.65
2018-07-19T12:58:47.576Z,3.67
2018-07-19T13:01:19.259Z,3.70
2018-07-19T13:03:50.856Z,3.33
2018-07-19T13:06:22.257Z,3.15
2018-07-19T13:08:54.080Z,3.22
2018-07-19T13:11:25.368Z,3.40
2018-07-19T13:13:57.223Z,3.12
2018-07-19T13:16:28.410Z,3.10
2018-07-19T13:18:59.724Z,3.10
2018-07-19T13:21:31.611Z,3.10
2018-07-19T13:24:02.721Z,2.90
2018-07-19T13:26:35.356Z,2.72
2018-07-19T13:29:06.544Z,3.00
2018-07-19T13:31:37.935Z,2.58
2018-07-19T13:34:08.902Z,2.62
2018-07-19T13:36:40.276Z,2.65
2018-07-19T13:39:11.879Z,2.67
2018-07-19T13:41:43.205Z,2.80
2018-07-19T13:44:14.585Z,2.60
2018-07-19T13:46:46.207Z,2.40
2018-07-19T13:49:17.445Z,2.42
2018-07-19T13:51:49.516Z,2.60
2018-07-19T13:54:34.743Z,2.45
2018-07-19T13:57:05.993Z,2.87
2018-07-19T13:59:37.535Z,2.80
2018-07-19T14:02:08.755Z,2.80
2018-07-19T14:04:39.911Z,2.83
2018-07-19T14:07:11.264Z,2.62
2018-07-19T14:09:42.904Z,2.50
2018-07-19T14:12:14.084Z,2.40
2018-07-19T14:14:45.379Z,2.35
2018-07-19T14:17:16.849Z,2.62
2018-07-19T14:19:48.554Z,2.70
2018-07-19T14:22:20.815Z,2.80
2018-07-19T14:24:52.105Z,2.60
2018-07-19T14:27:23.142Z,3.10
2018-07-19T14:29:54.504Z,2.60
2018-07-19T14:32:26.192Z,2.33
2018-07-19T14:34:57.762Z,2.60
2018-07-19T14:37:29.086Z,2.70
2018-07-19T14:40:00.502Z,2.90
2018-07-19T14:42:31.754Z,2.75
2018-07-19T14:45:02.861Z,2.87
2018-07-19T14:47:34.527Z,2.58
2018-07-19T14:50:05.858Z,2.67
2018-07-19T14:52:37.190Z,2.70
2018-07-19T14:55:08.808Z,2.70
2018-07-19T14:57:40.153Z,2.83
2018-07-19T15:00:12.004Z,2.90
2018-07-19T15:02:43.324Z,2.83
2018-07-19T15:05:14.364Z,2.70
2018-07-19T15:07:45.559Z,2.85
2018-07-19T15:10:16.734Z,2.75
2018-07-19T15:12:48.083Z,2.70
2018-07-19T15:15:19.369Z,2.58
2018-07-19T15:17:50.679Z,2.50
2018-07-19T15:20:21.659Z,2.40
2018-07-19T15:22:53.071Z,2.50
2018-07-19T15:25:24.540Z,2.40
2018-07-19T15:27:55.835Z,2.70
2018-07-19T15:30:27.075Z,2.50
2018-07-19T15:32:58.469Z,2.70
2018-07-19T15:35:29.626Z,2.70
2018-07-19T15:38:00.997Z,2.40
2018-07-19T15:40:32.016Z,2.60
2018-07-19T15:43:03.225Z,2.62
2018-07-19T15:45:34.635Z,2.58
2018-07-19T15:48:05.967Z,2.60
2018-07-19T15:50:37.164Z,2.25
2018-07-19T15:53:08.536Z,2.47
2018-07-19T15:55:39.545Z,2.55
2018-07-19T15:58:10.919Z,2.20
2018-07-19T16:00:42.347Z,2.80
2018-07-19T16:03:13.690Z,2.70
2018-07-19T16:05:44.728Z,2.40
2018-07-19T16:08:16.068Z,2.47
2018-07-19T16:10:47.282Z,2.50
2018-07-19T16:13:18.474Z,2.70
2018-07-19T16:15:49.687Z,2.42
2018-07-19T16:18:21.027Z,2.60
2018-07-19T16:20:52.248Z,2.52
2018-07-19T16:23:23.640Z,2.55
2018-07-19T16:25:54.877Z,2.72
2018-07-19T16:28:26.693Z,2.83
2018-07-19T16:30:58.152Z,2.40
2018-07-19T16:33:29.378Z,2.55
2018-07-19T16:36:01.012Z,2.52
2018-07-19T16:38:32.401Z,2.45
2018-07-19T16:41:03.758Z,2.45
2018-07-19T16:43:34.942Z,2.70
2018-07-19T16:46:06.320Z,2.72
2018-07-19T16:48:37.528Z,2.90
2018-07-19T16:51:08.767Z,2.90
2018-07-19T16:53:39.936Z,2.75
2018-07-19T16:56:11.269Z,2.70
2018-07-19T16:58:42.477Z,2.70
2018-07-19T17:01:13.840Z,2.50
2018-07-19T17:03:45.036Z,2.72
2018-07-19T17:06:16.048Z,2.70
2018-07-19T17:08:47.427Z,2.30
2018-07-19T17:11:18.611Z,2.72
2018-07-19T17:13:49.859Z,2.77
2018-07-19T17:16:21.967Z,2.50
2018-07-19T17:18:53.017Z,2.45
2018-07-19T17:21:24.356Z,2.85
2018-07-19T17:23:55.366Z,2.70
2018-07-19T17:26:26.557Z,2.65
2018-07-19T17:28:57.657Z,3.00
2018-07-19T17:31:29.103Z,2.52
2018-07-19T17:34:00.442Z,2.60
2018-07-19T17:36:31.708Z,2.50
2018-07-19T17:39:02.735Z,2.75
2018-07-19T17:41:34.075Z,3.25
2018-07-19T17:44:05.639Z,3.40
2018-07-19T17:46:36.813Z,3.10
2018-07-19T17:49:08.129Z,3.08
2018-07-19T17:51:39.543Z,2.80
2018-07-19T17:54:11.330Z,2.67
2018-07-19T17:56:42.722Z,2.92
2018-07-19T17:59:14.037Z,2.67
2018-07-19T18:01:45.926Z,2.40
2018-07-19T18:04:17.181Z,2.50
2018-07-19T18:06:48.215Z,2.80
2018-07-19T18:09:19.600Z,2.60
2018-07-19T18:11:51.064Z,2.85
2018-07-19T18:14:22.367Z,2.90
2018-07-19T18:16:53.614Z,2.87
2018-07-19T18:19:24.974Z,2.80
2018-07-19T18:21:56.650Z,2.80
2018-07-19T18:24:27.703Z,3.13
2018-07-19T18:26:58.386Z,2.60
2018-07-19T18:29:28.996Z,2.90
2018-07-19T18:31:59.598Z,2.67
2018-07-19T18:34:30.215Z,2.83
2018-07-19T18:37:00.912Z,2.93
2018-07-19T18:39:31.555Z,3.03
2018-07-19T18:42:02.193Z,2.80
2018-07-19T18:44:32.843Z,2.80
2018-07-19T18:47:03.516Z,2.80
2018-07-19T18:49:34.180Z,3.13
2018-07-19T18:52:04.847Z,3.10
2018-07-19T18:54:35.514Z,3.10
2018-07-19T18:57:06.222Z,3.30
2018-07-19T18:59:36.854Z,2.90
2018-07-19T19:02:07.759Z,2.87
2018-07-19T19:04:38.394Z,3.80
2018-07-19T19:07:09.291Z,3.40
2018-07-19T19:09:39.928Z,3.17
2018-07-19T19:12:11.127Z,2.97
2018-07-19T19:14:41.743Z,3.07
2018-07-19T19:17:13.117Z,3.50
2018-07-19T19:19:43.724Z,3.50
2018-07-19T19:22:14.352Z,3.90
2018-07-19T19:24:44.963Z,3.83
2018-07-19T19:27:15.571Z,3.63
2018-07-19T19:29:46.155Z,3.90
2018-07-19T19:32:16.776Z,3.90
2018-07-19T19:34:47.422Z,3.70
2018-07-19T19:37:17.454Z,3.90
2018-07-19T19:39:48.092Z,3.67
2018-07-19T19:42:18.766Z,3.70
2018-07-19T19:44:49.395Z,3.70
2018-07-19T19:47:20.135Z,4.23
2018-07-19T19:49:50.765Z,3.93
2018-07-19T19:52:21.387Z,3.93
2018-07-19T19:54:52.028Z,4.20
2018-07-19T19:57:22.700Z,4.60
2018-07-19T19:59:53.328Z,3.87
2018-07-19T20:02:23.985Z,3.83
2018-07-19T20:04:54.617Z,4.00
2018-07-19T20:07:25.257Z,4.03
2018-07-19T20:09:55.316Z,3.80
2018-07-19T20:12:25.984Z,4.30
2018-07-19T20:14:56.742Z,3.87
2018-07-19T20:17:27.435Z,4.17
2018-07-19T20:19:58.115Z,3.90
2018-07-19T20:22:28.752Z,3.60
2018-07-19T20:24:59.387Z,4.30
2018-07-19T20:27:30.016Z,4.60
2018-07-19T20:30:00.694Z,4.40
2018-07-19T20:32:31.406Z,4.17
2018-07-19T20:35:02.074Z,4.30
2018-07-19T20:37:32.159Z,4.20
2018-07-19T20:40:02.854Z,4.83
2018-07-19T20:42:33.580Z,4.77
2018-07-19T20:45:04.354Z,4.70
2018-07-19T20:47:35.140Z,4.83
2018-07-19T20:50:05.949Z,4.70
2018-07-19T20:52:36.625Z,4.50
2018-07-19T20:55:07.912Z,4.67
2018-07-19T20:57:39.123Z,4.60
2018-07-19T21:00:09.795Z,4.70
2018-07-19T21:02:40.507Z,4.40
2018-07-19T21:05:11.159Z,5.20
2018-07-19T21:07:41.852Z,5.10
2018-07-19T21:10:12.530Z,5.27
2018-07-19T21:12:43.191Z,5.70
2018-07-19T21:15:14.818Z,5.43
2018-07-19T21:17:45.440Z,5.00
2018-07-19T21:20:16.143Z,4.90
2018-07-19T21:22:46.787Z,5.63
2018-07-19T21:25:17.431Z,5.23
2018-07-19T21:27:48.047Z,4.70
2018-07-19T21:30:18.806Z,4.30
2018-07-19T21:32:49.558Z,4.73
2018-07-19T21:35:20.189Z,5.07
2018-07-19T21:37:50.874Z,5.20
2018-07-19T21:40:21.532Z,5.07
2018-07-19T21:42:52.160Z,4.97
2018-07-19T21:45:22.843Z,5.37
2018-07-19T21:47:53.464Z,5.70
2018-07-19T21:50:24.101Z,5.50
2018-07-19T21:52:54.725Z,5.37
2018-07-19T21:55:25.767Z,5.37
2018-07-19T21:57:56.688Z,5.20
2018-07-19T22:00:30.245Z,4.93
2018-07-19T22:03:02.616Z,4.93
2018-07-19T22:05:33.244Z,4.80
2018-07-19T22:08:04.471Z,5.40
2018-07-19T22:10:35.117Z,5.87
2018-07-19T22:13:05.772Z,6.23
2018-07-19T22:15:36.404Z,6.93
2018-07-19T22:18:07.251Z,7.40
2018-07-19T22:20:37.895Z,7.33
2018-07-19T22:23:08.555Z,7.77
2018-07-19T22:25:39.232Z,7.80
2018-07-19T22:28:09.864Z,7.80
2018-07-19T22:30:40.503Z,8.37
2018-07-19T22:33:11.142Z,8.80
2018-07-19T22:35:41.799Z,8.93
2018-07-19T22:38:12.600Z,10.13
2018-07-19T22:40:43.221Z,9.67
2018-07-19T22:43:13.871Z,10.50
2018-07-19T22:45:44.515Z,11.20
2018-07-19T22:48:15.159Z,12.07
2018-07-19T22:50:45.779Z,11.37
2018-07-19T22:53:16.911Z,11.80
2018-07-19T22:55:47.698Z,11.77
2018-07-19T22:58:18.318Z,12.33
2018-07-19T23:00:48.961Z,11.93
2018-07-19T23:03:19.595Z,12.07
2018-07-19T23:05:50.244Z,11.83
2018-07-19T23:08:20.900Z,11.73
2018-07-19T23:10:51.535Z,12.17
2018-07-19T23:13:22.178Z,12.10
2018-07-19T23:15:52.230Z,11.53
2018-07-19T23:18:22.881Z,12.10
2018-07-19T23:20:53.551Z,11.50
2018-07-19T23:23:24.233Z,11.20
2018-07-19T23:25:54.922Z,11.23
2018-07-19T23:28:25.963Z,11.30
2018-07-19T23:30:56.747Z,11.97
2018-07-19T23:33:27.968Z,10.77
2018-07-19T23:36:03.484Z,11.47
2018-07-19T23:39:40.116Z,11.50
2018-07-19T23:42:33.223Z,11.80
2018-07-19T23:45:08.882Z,12.17
2018-07-19T23:47:40.858Z,11.83
2018-07-19T23:50:10.919Z,11.97
2018-07-19T23:52:41.537Z,11.80
2018-07-19T23:55:12.226Z,12.30
2018-07-19T23:57:42.864Z,11.63
